sensor_id;sensor_type;location;lat;lon;timestamp;temperature;humidity
10443;DHT22;5269;51.146;16.986;2022-09-16T00:00:53;13.50;65.70
10443;DHT22;5269;51.146;16.986;2022-09-16T00:06:43;13.50;99.90
10443;DHT22;5269;51.146;16.986;2022-09-16T00:09:10;13.50;1.00
10443;DHT22;5269;51.146;16.986;2022-09-16T00:11:37;13.50;1.00
10443;DHT22;5269;51.146;16.986;2022-09-16T00:14:04;13.50;1.00
10443;DHT22;5269;51.146;16.986;2022-09-16T00:16:31;13.50;99.90
10443;DHT22;5269;51.146;16.986;2022-09-16T00:18:59;13.50;1.00
10443;DHT22;5269;51.146;16.986;2022-09-16T00:21:27;13.50;1.00
10443;DHT22;5269;51.146;16.986;2022-09-16T00:23:56;13.50;1.00
10443;DHT22;5269;51.146;16.986;2022-09-16T00:26:22;13.50;1.00
10443;DHT22;5269;51.146;16.986;2022-09-16T00:28:50;13.50;99.90
10443;DHT22;5269;51.146;16.986;2022-09-16T00:31:17;13.60;1.00
10443;DHT22;5269;51.146;16.986;2022-09-16T00:33:44;13.60;1.00
10443;DHT22;5269;51.146;16.986;2022-09-16T00:36:13;13.60;99.90
10443;DHT22;5269;51.146;16.986;2022-09-16T00:38:41;13.60;1.00
10443;DHT22;5269;51.146;16.986;2022-09-16T00:41:14;13.60;1.00
10443;DHT22;5269;51.146;16.986;2022-09-16T00:43:47;13.60;1.00
10443;DHT22;5269;51.146;16.986;2022-09-16T00:46:15;13.60;1.00
10443;DHT22;5269;51.146;16.986;2022-09-16T00:48:42;13.60;99.90
10443;DHT22;5269;51.146;16.986;2022-09-16T00:51:10;13.50;99.90
10443;DHT22;5269;51.146;16.986;2022-09-16T00:53:41;13.60;1.00
10443;DHT22;5269;51.146;16.986;2022-09-16T00:56:12;13.50;1.00
10443;DHT22;5269;51.146;16.986;2022-09-16T00:58:43;13.50;1.00
10443;DHT22;5269;51.146;16.986;2022-09-16T01:01:11;13.50;1.00
10443;DHT22;5269;51.146;16.986;2022-09-16T01:03:45;13.50;1.00
10443;DHT22;5269;51.146;16.986;2022-09-16T01:06:14;13.50;1.00
10443;DHT22;5269;51.146;16.986;2022-09-16T01:08:42;13.40;90.40
10443;DHT22;5269;51.146;16.986;2022-09-16T01:11:11;13.50;99.90
10443;DHT22;5269;51.146;16.986;2022-09-16T01:13:39;13.50;99.90
10443;DHT22;5269;51.146;16.986;2022-09-16T01:16:11;13.50;1.00
10443;DHT22;5269;51.146;16.986;2022-09-16T01:18:43;13.50;28.90
10443;DHT22;5269;51.146;16.986;2022-09-16T01:21:24;13.50;1.00
10443;DHT22;5269;51.146;16.986;2022-09-16T01:24:25;13.50;99.90
10443;DHT22;5269;51.146;16.986;2022-09-16T01:33:03;13.50;1.00
10443;DHT22;5269;51.146;16.986;2022-09-16T01:35:53;13.50;99.90
10443;DHT22;5269;51.146;16.986;2022-09-16T01:38:27;13.50;31.20
10443;DHT22;5269;51.146;16.986;2022-09-16T01:41:05;13.50;99.90
10443;DHT22;5269;51.146;16.986;2022-09-16T01:43:43;13.60;1.00
10443;DHT22;5269;51.146;16.986;2022-09-16T01:46:19;13.60;1.00
10443;DHT22;5269;51.146;16.986;2022-09-16T01:48:53;13.60;99.90
10443;DHT22;5269;51.146;16.986;2022-09-16T01:51:25;13.50;99.90
10443;DHT22;5269;51.146;16.986;2022-09-16T01:54:01;13.60;99.90
10443;DHT22;5269;51.146;16.986;2022-09-16T01:59:55;13.50;99.90
10443;DHT22;5269;51.146;16.986;2022-09-16T02:02:27;13.50;1.00
10443;DHT22;5269;51.146;16.986;2022-09-16T02:05:00;13.50;99.90
10443;DHT22;5269;51.146;16.986;2022-09-16T02:07:32;13.50;64.80
10443;DHT22;5269;51.146;16.986;2022-09-16T02:10:05;13.50;1.00
10443;DHT22;5269;51.146;16.986;2022-09-16T02:12:37;13.60;1.00
10443;DHT22;5269;51.146;16.986;2022-09-16T02:18:30;13.50;1.00
10443;DHT22;5269;51.146;16.986;2022-09-16T02:21:02;13.60;96.60
10443;DHT22;5269;51.146;16.986;2022-09-16T02:23:33;13.50;99.90
10443;DHT22;5269;51.146;16.986;2022-09-16T02:29:26;13.40;99.90
10443;DHT22;5269;51.146;16.986;2022-09-16T02:35:18;13.50;1.00
10443;DHT22;5269;51.146;16.986;2022-09-16T02:37:50;13.50;99.90
10443;DHT22;5269;51.146;16.986;2022-09-16T02:40:23;13.50;1.00
10443;DHT22;5269;51.146;16.986;2022-09-16T02:46:20;13.50;1.00
10443;DHT22;5269;51.146;16.986;2022-09-16T02:48:55;13.50;69.30
10443;DHT22;5269;51.146;16.986;2022-09-16T02:51:29;13.60;1.00
10443;DHT22;5269;51.146;16.986;2022-09-16T02:54:02;13.60;1.00
10443;DHT22;5269;51.146;16.986;2022-09-16T02:56:32;13.60;1.00
10443;DHT22;5269;51.146;16.986;2022-09-16T02:59:01;13.60;1.00
10443;DHT22;5269;51.146;16.986;2022-09-16T03:01:30;13.60;1.00
10443;DHT22;5269;51.146;16.986;2022-09-16T03:07:20;13.60;1.00
10443;DHT22;5269;51.146;16.986;2022-09-16T03:09:49;13.60;99.90
10443;DHT22;5269;51.146;16.986;2022-09-16T03:12:32;13.60;1.00
10443;DHT22;5269;51.146;16.986;2022-09-16T03:18:39;13.60;1.00
10443;DHT22;5269;51.146;16.986;2022-09-16T03:21:15;13.60;99.90
10443;DHT22;5269;51.146;16.986;2022-09-16T03:27:10;13.50;1.00
10443;DHT22;5269;51.146;16.986;2022-09-16T03:29:41;13.50;99.90
10443;DHT22;5269;51.146;16.986;2022-09-16T03:32:17;13.40;1.00
10443;DHT22;5269;51.146;16.986;2022-09-16T03:34:50;13.30;99.90
10443;DHT22;5269;51.146;16.986;2022-09-16T03:37:19;13.30;99.90
10443;DHT22;5269;51.146;16.986;2022-09-16T03:39:49;13.30;1.00
10443;DHT22;5269;51.146;16.986;2022-09-16T03:42:19;13.30;99.90
10443;DHT22;5269;51.146;16.986;2022-09-16T03:44:47;13.20;1.00
10443;DHT22;5269;51.146;16.986;2022-09-16T03:47:14;13.20;8.00
10443;DHT22;5269;51.146;16.986;2022-09-16T03:49:42;13.20;11.10
10443;DHT22;5269;51.146;16.986;2022-09-16T03:52:09;13.20;99.90
10443;DHT22;5269;51.146;16.986;2022-09-16T03:54:36;13.20;99.90
10443;DHT22;5269;51.146;16.986;2022-09-16T04:00:26;13.20;1.00
10443;DHT22;5269;51.146;16.986;2022-09-16T04:06:16;13.20;1.00
10443;DHT22;5269;51.146;16.986;2022-09-16T04:08:43;13.10;1.00
10443;DHT22;5269;51.146;16.986;2022-09-16T04:11:10;13.10;1.00
10443;DHT22;5269;51.146;16.986;2022-09-16T04:13:36;13.10;1.00
10443;DHT22;5269;51.146;16.986;2022-09-16T04:19:27;13.20;1.00
10443;DHT22;5269;51.146;16.986;2022-09-16T04:21:53;13.20;97.90
10443;DHT22;5269;51.146;16.986;2022-09-16T04:24:20;13.10;99.90
10443;DHT22;5269;51.146;16.986;2022-09-16T04:26:49;13.10;99.90
10443;DHT22;5269;51.146;16.986;2022-09-16T04:29:16;12.90;99.90
10443;DHT22;5269;51.146;16.986;2022-09-16T04:31:42;12.90;99.90
10443;DHT22;5269;51.146;16.986;2022-09-16T04:34:09;12.70;99.90
10443;DHT22;5269;51.146;16.986;2022-09-16T04:36:38;12.60;99.90
10443;DHT22;5269;51.146;16.986;2022-09-16T04:42:27;12.40;99.90
10443;DHT22;5269;51.146;16.986;2022-09-16T04:44:54;12.20;99.90
10443;DHT22;5269;51.146;16.986;2022-09-16T04:47:22;12.10;99.90
10443;DHT22;5269;51.146;16.986;2022-09-16T04:49:49;12.00;99.90
10443;DHT22;5269;51.146;16.986;2022-09-16T04:52:17;12.10;99.90
10443;DHT22;5269;51.146;16.986;2022-09-16T04:54:44;12.00;99.90
10443;DHT22;5269;51.146;16.986;2022-09-16T04:57:11;12.10;99.90
10443;DHT22;5269;51.146;16.986;2022-09-16T05:00:06;12.00;99.90
10443;DHT22;5269;51.146;16.986;2022-09-16T05:02:33;11.90;99.90
10443;DHT22;5269;51.146;16.986;2022-09-16T05:05:00;12.00;99.90
10443;DHT22;5269;51.146;16.986;2022-09-16T05:07:29;12.00;99.90
10443;DHT22;5269;51.146;16.986;2022-09-16T05:13:17;11.90;99.90
10443;DHT22;5269;51.146;16.986;2022-09-16T05:15:44;12.00;99.90
10443;DHT22;5269;51.146;16.986;2022-09-16T05:18:11;12.00;99.90
10443;DHT22;5269;51.146;16.986;2022-09-16T05:20:38;12.20;99.90
10443;DHT22;5269;51.146;16.986;2022-09-16T05:23:06;12.20;99.90
10443;DHT22;5269;51.146;16.986;2022-09-16T05:32:35;12.20;99.90
10443;DHT22;5269;51.146;16.986;2022-09-16T05:35:02;12.20;99.90
10443;DHT22;5269;51.146;16.986;2022-09-16T05:37:29;12.30;99.90
10443;DHT22;5269;51.146;16.986;2022-09-16T05:39:57;12.40;99.90
10443;DHT22;5269;51.146;16.986;2022-09-16T05:42:24;12.60;99.90
10443;DHT22;5269;51.146;16.986;2022-09-16T05:44:51;12.80;99.90
10443;DHT22;5269;51.146;16.986;2022-09-16T05:50:40;13.00;99.90
10443;DHT22;5269;51.146;16.986;2022-09-16T05:53:07;13.20;99.90
10443;DHT22;5269;51.146;16.986;2022-09-16T05:55:56;13.30;99.90
10443;DHT22;5269;51.146;16.986;2022-09-16T05:58:23;13.20;99.90
10443;DHT22;5269;51.146;16.986;2022-09-16T06:00:51;13.30;99.90
10443;DHT22;5269;51.146;16.986;2022-09-16T06:03:18;13.30;99.90
10443;DHT22;5269;51.146;16.986;2022-09-16T06:12:30;13.20;99.90
10443;DHT22;5269;51.146;16.986;2022-09-16T06:18:20;13.30;99.90
10443;DHT22;5269;51.146;16.986;2022-09-16T06:24:10;13.30;99.90
10443;DHT22;5269;51.146;16.986;2022-09-16T06:26:39;13.50;99.90
10443;DHT22;5269;51.146;16.986;2022-09-16T06:29:08;13.40;99.90
10443;DHT22;5269;51.146;16.986;2022-09-16T06:31:36;13.40;99.90
10443;DHT22;5269;51.146;16.986;2022-09-16T06:34:04;13.50;99.90
10443;DHT22;5269;51.146;16.986;2022-09-16T06:36:32;13.60;99.90
10443;DHT22;5269;51.146;16.986;2022-09-16T06:45:45;14.00;19.70
10443;DHT22;5269;51.146;16.986;2022-09-16T06:48:11;14.00;99.90
10443;DHT22;5269;51.146;16.986;2022-09-16T06:54:03;14.00;99.90
10443;DHT22;5269;51.146;16.986;2022-09-16T06:59:51;14.10;1.00
10443;DHT22;5269;51.146;16.986;2022-09-16T07:05:42;14.30;1.00
10443;DHT22;5269;51.146;16.986;2022-09-16T07:11:31;14.30;1.00
10443;DHT22;5269;51.146;16.986;2022-09-16T07:20:43;14.30;1.00
10443;DHT22;5269;51.146;16.986;2022-09-16T07:23:10;14.10;1.00
10443;DHT22;5269;51.146;16.986;2022-09-16T07:25:36;14.20;99.90
10443;DHT22;5269;51.146;16.986;2022-09-16T07:28:03;14.10;99.90
10443;DHT22;5269;51.146;16.986;2022-09-16T07:30:31;14.30;99.90
10443;DHT22;5269;51.146;16.986;2022-09-16T07:32:58;14.30;1.00
10443;DHT22;5269;51.146;16.986;2022-09-16T07:35:25;14.40;99.90
10443;DHT22;5269;51.146;16.986;2022-09-16T07:37:54;14.50;99.90
10443;DHT22;5269;51.146;16.986;2022-09-16T07:40:21;14.40;99.90
10443;DHT22;5269;51.146;16.986;2022-09-16T07:42:48;14.40;1.00
10443;DHT22;5269;51.146;16.986;2022-09-16T07:45:15;14.40;1.00
10443;DHT22;5269;51.146;16.986;2022-09-16T07:47:42;14.50;99.90
10443;DHT22;5269;51.146;16.986;2022-09-16T07:50:09;14.60;1.00
10443;DHT22;5269;51.146;16.986;2022-09-16T07:52:36;14.70;99.90
10443;DHT22;5269;51.146;16.986;2022-09-16T07:55:04;14.60;99.90
10443;DHT22;5269;51.146;16.986;2022-09-16T07:57:32;14.50;1.00
10443;DHT22;5269;51.146;16.986;2022-09-16T08:06:37;14.50;1.00
10443;DHT22;5269;51.146;16.986;2022-09-16T08:09:04;14.60;70.30
10443;DHT22;5269;51.146;16.986;2022-09-16T08:11:33;14.60;99.90
10443;DHT22;5269;51.146;16.986;2022-09-16T08:14:00;14.80;99.90
10443;DHT22;5269;51.146;16.986;2022-09-16T08:16:27;14.70;1.00
10443;DHT22;5269;51.146;16.986;2022-09-16T08:18:56;14.70;1.00
10443;DHT22;5269;51.146;16.986;2022-09-16T08:21:28;14.70;1.00
10443;DHT22;5269;51.146;16.986;2022-09-16T08:23:58;14.80;1.00
10443;DHT22;5269;51.146;16.986;2022-09-16T08:26:27;14.80;99.90
10443;DHT22;5269;51.146;16.986;2022-09-16T08:32:17;14.60;99.90
10443;DHT22;5269;51.146;16.986;2022-09-16T08:34:44;14.60;1.00
10443;DHT22;5269;51.146;16.986;2022-09-16T08:40:35;14.50;1.00
10443;DHT22;5269;51.146;16.986;2022-09-16T08:46:30;14.30;71.00
10443;DHT22;5269;51.146;16.986;2022-09-16T08:52:27;15.00;1.00
10443;DHT22;5269;51.146;16.986;2022-09-16T08:55:00;15.40;1.00
10443;DHT22;5269;51.146;16.986;2022-09-16T09:00:56;15.40;99.90
10443;DHT22;5269;51.146;16.986;2022-09-16T09:06:58;15.20;99.90
10443;DHT22;5269;51.146;16.986;2022-09-16T09:12:29;15.30;1.00
10443;DHT22;5269;51.146;16.986;2022-09-16T09:15:16;15.60;1.00
10443;DHT22;5269;51.146;16.986;2022-09-16T09:18:01;15.50;99.90
10443;DHT22;5269;51.146;16.986;2022-09-16T09:20:40;15.30;1.00
10443;DHT22;5269;51.146;16.986;2022-09-16T09:26:31;15.20;1.00
10443;DHT22;5269;51.146;16.986;2022-09-16T09:29:33;15.40;1.00
10443;DHT22;5269;51.146;16.986;2022-09-16T09:32:18;15.40;1.00
10443;DHT22;5269;51.146;16.986;2022-09-16T09:35:01;15.40;1.00
10443;DHT22;5269;51.146;16.986;2022-09-16T09:37:45;15.10;2.60
10443;DHT22;5269;51.146;16.986;2022-09-16T09:40:18;14.90;99.90
10443;DHT22;5269;51.146;16.986;2022-09-16T09:42:52;14.70;99.90
10443;DHT22;5269;51.146;16.986;2022-09-16T09:45:32;14.70;1.00
10443;DHT22;5269;51.146;16.986;2022-09-16T09:48:08;14.80;99.90
10443;DHT22;5269;51.146;16.986;2022-09-16T09:50:47;15.00;1.00
10443;DHT22;5269;51.146;16.986;2022-09-16T09:53:38;15.10;1.00
10443;DHT22;5269;51.146;16.986;2022-09-16T09:56:20;15.10;1.00
10443;DHT22;5269;51.146;16.986;2022-09-16T09:59:18;15.00;1.00
10443;DHT22;5269;51.146;16.986;2022-09-16T10:02:11;14.90;1.00
10443;DHT22;5269;51.146;16.986;2022-09-16T10:04:58;14.90;1.00
10443;DHT22;5269;51.146;16.986;2022-09-16T10:07:36;15.00;1.00
10443;DHT22;5269;51.146;16.986;2022-09-16T10:10:20;15.10;1.00
10443;DHT22;5269;51.146;16.986;2022-09-16T10:13:08;15.30;1.00
10443;DHT22;5269;51.146;16.986;2022-09-16T10:16:06;15.50;99.90
10443;DHT22;5269;51.146;16.986;2022-09-16T10:18:37;15.80;99.90
10443;DHT22;5269;51.146;16.986;2022-09-16T10:21:12;16.10;99.90
10443;DHT22;5269;51.146;16.986;2022-09-16T10:23:51;16.20;35.10
10443;DHT22;5269;51.146;16.986;2022-09-16T10:26:24;16.10;1.00
10443;DHT22;5269;51.146;16.986;2022-09-16T10:29:17;16.40;1.00
10443;DHT22;5269;51.146;16.986;2022-09-16T10:32:11;16.50;1.00
10443;DHT22;5269;51.146;16.986;2022-09-16T10:34:45;16.60;1.00
10443;DHT22;5269;51.146;16.986;2022-09-16T10:37:21;16.80;1.00
10443;DHT22;5269;51.146;16.986;2022-09-16T10:39:54;16.50;1.00
10443;DHT22;5269;51.146;16.986;2022-09-16T10:42:27;16.10;1.00
10443;DHT22;5269;51.146;16.986;2022-09-16T10:44:58;15.80;1.00
10443;DHT22;5269;51.146;16.986;2022-09-16T10:47:31;15.60;2.20
10443;DHT22;5269;51.146;16.986;2022-09-16T10:50:04;15.60;11.90
10443;DHT22;5269;51.146;16.986;2022-09-16T10:56:00;15.90;80.60
10443;DHT22;5269;51.146;16.986;2022-09-16T10:58:33;16.30;99.90
10443;DHT22;5269;51.146;16.986;2022-09-16T11:01:23;16.50;1.00
10443;DHT22;5269;51.146;16.986;2022-09-16T11:07:09;16.30;1.00
10443;DHT22;5269;51.146;16.986;2022-09-16T11:09:56;16.10;1.00
10443;DHT22;5269;51.146;16.986;2022-09-16T11:15:34;15.70;99.90
10443;DHT22;5269;51.146;16.986;2022-09-16T11:18:31;15.70;99.90
10443;DHT22;5269;51.146;16.986;2022-09-16T11:21:27;15.40;1.00
10443;DHT22;5269;51.146;16.986;2022-09-16T11:24:28;15.70;1.00
10443;DHT22;5269;51.146;16.986;2022-09-16T11:27:05;15.90;99.90
10443;DHT22;5269;51.146;16.986;2022-09-16T11:29:50;15.90;99.90
10443;DHT22;5269;51.146;16.986;2022-09-16T11:32:27;15.90;1.00
10443;DHT22;5269;51.146;16.986;2022-09-16T11:35:08;16.10;1.00
10443;DHT22;5269;51.146;16.986;2022-09-16T11:37:49;16.30;1.00
10443;DHT22;5269;51.146;16.986;2022-09-16T11:40:31;16.60;1.00
10443;DHT22;5269;51.146;16.986;2022-09-16T11:43:21;16.80;1.00
10443;DHT22;5269;51.146;16.986;2022-09-16T11:45:53;16.70;1.00
10443;DHT22;5269;51.146;16.986;2022-09-16T11:48:35;16.40;1.00
10443;DHT22;5269;51.146;16.986;2022-09-16T11:51:09;16.00;1.00
10443;DHT22;5269;51.146;16.986;2022-09-16T11:54:02;15.80;1.00
10443;DHT22;5269;51.146;16.986;2022-09-16T11:56:40;15.80;37.90
10443;DHT22;5269;51.146;16.986;2022-09-16T11:59:14;16.00;62.80
10443;DHT22;5269;51.146;16.986;2022-09-16T12:01:45;16.30;1.00
10443;DHT22;5269;51.146;16.986;2022-09-16T12:04:19;16.60;37.60
10443;DHT22;5269;51.146;16.986;2022-09-16T12:06:54;16.80;1.00
10443;DHT22;5269;51.146;16.986;2022-09-16T12:09:32;17.00;1.00
10443;DHT22;5269;51.146;16.986;2022-09-16T12:12:12;17.00;1.00
10443;DHT22;5269;51.146;16.986;2022-09-16T12:18:12;16.70;1.00
10443;DHT22;5269;51.146;16.986;2022-09-16T12:20:43;16.80;1.00
10443;DHT22;5269;51.146;16.986;2022-09-16T12:23:22;16.80;1.00
10443;DHT22;5269;51.146;16.986;2022-09-16T12:26:00;16.80;1.00
10443;DHT22;5269;51.146;16.986;2022-09-16T12:28:34;17.10;1.00
10443;DHT22;5269;51.146;16.986;2022-09-16T12:31:11;17.20;1.00
10443;DHT22;5269;51.146;16.986;2022-09-16T12:33:43;17.20;1.00
10443;DHT22;5269;51.146;16.986;2022-09-16T12:36:14;17.20;1.00
10443;DHT22;5269;51.146;16.986;2022-09-16T12:38:42;17.30;1.00
10443;DHT22;5269;51.146;16.986;2022-09-16T12:41:30;17.40;1.00
10443;DHT22;5269;51.146;16.986;2022-09-16T12:44:23;17.60;1.00
10443;DHT22;5269;51.146;16.986;2022-09-16T12:56:07;17.60;1.00
10443;DHT22;5269;51.146;16.986;2022-09-16T13:01:38;17.70;1.00
10443;DHT22;5269;51.146;16.986;2022-09-16T13:07:31;17.60;1.00
10443;DHT22;5269;51.146;16.986;2022-09-16T13:10:22;17.80;1.00
10443;DHT22;5269;51.146;16.986;2022-09-16T13:16:13;17.50;1.00
10443;DHT22;5269;51.146;16.986;2022-09-16T13:18:43;17.50;1.00
10443;DHT22;5269;51.146;16.986;2022-09-16T13:21:21;17.60;1.00
10443;DHT22;5269;51.146;16.986;2022-09-16T13:23:58;17.60;1.00
10443;DHT22;5269;51.146;16.986;2022-09-16T13:29:48;17.40;1.00
10443;DHT22;5269;51.146;16.986;2022-09-16T13:32:25;17.20;1.00
10443;DHT22;5269;51.146;16.986;2022-09-16T13:35:21;16.20;1.00
10443;DHT22;5269;51.146;16.986;2022-09-16T13:38:34;15.90;1.00
10443;DHT22;5269;51.146;16.986;2022-09-16T13:40:58;15.90;1.00
10443;DHT22;5269;51.146;16.986;2022-09-16T13:43:31;15.60;1.00
10443;DHT22;5269;51.146;16.986;2022-09-16T13:46:07;15.50;1.00
10443;DHT22;5269;51.146;16.986;2022-09-16T13:48:40;15.50;1.00
10443;DHT22;5269;51.146;16.986;2022-09-16T13:51:15;15.50;1.00
10443;DHT22;5269;51.146;16.986;2022-09-16T13:53:47;15.60;1.00
10443;DHT22;5269;51.146;16.986;2022-09-16T13:56:34;15.70;1.00
10443;DHT22;5269;51.146;16.986;2022-09-16T13:59:14;15.90;1.00
10443;DHT22;5269;51.146;16.986;2022-09-16T14:02:00;16.10;1.00
10443;DHT22;5269;51.146;16.986;2022-09-16T14:04:41;16.30;1.00
10443;DHT22;5269;51.146;16.986;2022-09-16T14:07:26;16.30;1.00
10443;DHT22;5269;51.146;16.986;2022-09-16T14:10:02;16.30;1.00
10443;DHT22;5269;51.146;16.986;2022-09-16T14:12:38;16.30;1.00
10443;DHT22;5269;51.146;16.986;2022-09-16T14:15:10;16.40;1.00
10443;DHT22;5269;51.146;16.986;2022-09-16T14:17:41;16.70;1.00
10443;DHT22;5269;51.146;16.986;2022-09-16T14:20:13;16.90;1.00
10443;DHT22;5269;51.146;16.986;2022-09-16T14:22:45;16.90;1.00
10443;DHT22;5269;51.146;16.986;2022-09-16T14:25:26;17.00;1.00
10443;DHT22;5269;51.146;16.986;2022-09-16T14:28:14;17.20;1.00
10443;DHT22;5269;51.146;16.986;2022-09-16T14:30:45;17.00;1.00
10443;DHT22;5269;51.146;16.986;2022-09-16T14:33:13;16.80;1.00
10443;DHT22;5269;51.146;16.986;2022-09-16T14:49:21;17.00;1.00
10443;DHT22;5269;51.146;16.986;2022-09-16T14:51:55;16.60;1.00
10443;DHT22;5269;51.146;16.986;2022-09-16T14:54:25;16.40;1.00
10443;DHT22;5269;51.146;16.986;2022-09-16T14:56:57;16.20;1.00
10443;DHT22;5269;51.146;16.986;2022-09-16T14:59:27;16.30;1.00
10443;DHT22;5269;51.146;16.986;2022-09-16T15:01:58;16.20;1.00
10443;DHT22;5269;51.146;16.986;2022-09-16T15:08:54;15.20;99.90
10443;DHT22;5269;51.146;16.986;2022-09-16T15:14:32;13.80;1.00
10443;DHT22;5269;51.146;16.986;2022-09-16T15:17:31;13.80;99.90
10443;DHT22;5269;51.146;16.986;2022-09-16T15:19:58;14.00;94.40
10443;DHT22;5269;51.146;16.986;2022-09-16T15:29:27;14.70;1.00
10443;DHT22;5269;51.146;16.986;2022-09-16T15:32:26;14.80;99.90
10443;DHT22;5269;51.146;16.986;2022-09-16T15:35:10;15.10;1.00
10443;DHT22;5269;51.146;16.986;2022-09-16T15:38:08;15.40;95.40
10443;DHT22;5269;51.146;16.986;2022-09-16T15:44:24;15.50;1.00
10443;DHT22;5269;51.146;16.986;2022-09-16T15:50:17;15.80;99.90
10443;DHT22;5269;51.146;16.986;2022-09-16T15:52:53;15.70;99.90
10443;DHT22;5269;51.146;16.986;2022-09-16T15:55:29;15.70;99.90
10443;DHT22;5269;51.146;16.986;2022-09-16T15:58:02;15.70;1.00
10443;DHT22;5269;51.146;16.986;2022-09-16T16:03:48;15.40;99.90
10443;DHT22;5269;51.146;16.986;2022-09-16T16:06:15;15.70;1.00
10443;DHT22;5269;51.146;16.986;2022-09-16T16:08:48;15.80;1.00
10443;DHT22;5269;51.146;16.986;2022-09-16T16:11:22;15.70;1.00
10443;DHT22;5269;51.146;16.986;2022-09-16T16:13:50;15.90;4.30
10443;DHT22;5269;51.146;16.986;2022-09-16T16:16:22;15.80;99.90
10443;DHT22;5269;51.146;16.986;2022-09-16T16:18:49;15.70;1.00
10443;DHT22;5269;51.146;16.986;2022-09-16T16:24:38;15.30;1.00
10443;DHT22;5269;51.146;16.986;2022-09-16T16:30:29;14.90;99.90
10443;DHT22;5269;51.146;16.986;2022-09-16T16:32:58;14.80;99.90
10443;DHT22;5269;51.146;16.986;2022-09-16T16:35:25;14.70;99.90
10443;DHT22;5269;51.146;16.986;2022-09-16T16:37:52;14.50;99.90
10443;DHT22;5269;51.146;16.986;2022-09-16T16:40:19;14.30;1.00
10443;DHT22;5269;51.146;16.986;2022-09-16T16:42:46;14.20;1.00
10443;DHT22;5269;51.146;16.986;2022-09-16T16:45:16;14.00;67.30
10443;DHT22;5269;51.146;16.986;2022-09-16T16:47:43;13.90;99.90
10443;DHT22;5269;51.146;16.986;2022-09-16T16:50:12;13.90;99.90
10443;DHT22;5269;51.146;16.986;2022-09-16T16:52:39;13.90;99.90
10443;DHT22;5269;51.146;16.986;2022-09-16T16:55:07;13.80;99.90
10443;DHT22;5269;51.146;16.986;2022-09-16T17:00:55;13.50;99.90
10443;DHT22;5269;51.146;16.986;2022-09-16T17:03:22;13.20;99.90
10443;DHT22;5269;51.146;16.986;2022-09-16T17:05:51;13.20;99.90
10443;DHT22;5269;51.146;16.986;2022-09-16T17:08:17;13.00;99.90
10443;DHT22;5269;51.146;16.986;2022-09-16T17:10:44;12.90;99.90
10443;DHT22;5269;51.146;16.986;2022-09-16T17:13:12;12.80;99.90
10443;DHT22;5269;51.146;16.986;2022-09-16T17:15:39;12.70;99.90
10443;DHT22;5269;51.146;16.986;2022-09-16T17:18:06;12.70;99.90
10443;DHT22;5269;51.146;16.986;2022-09-16T17:20:33;12.70;99.90
10443;DHT22;5269;51.146;16.986;2022-09-16T17:23:01;12.60;99.90
10443;DHT22;5269;51.146;16.986;2022-09-16T17:25:28;12.70;99.90
10443;DHT22;5269;51.146;16.986;2022-09-16T17:27:55;12.70;99.90
10443;DHT22;5269;51.146;16.986;2022-09-16T17:33:47;12.70;99.90
10443;DHT22;5269;51.146;16.986;2022-09-16T17:36:16;12.70;99.90
10443;DHT22;5269;51.146;16.986;2022-09-16T17:38:45;12.60;99.90
10443;DHT22;5269;51.146;16.986;2022-09-16T17:41:14;12.60;99.90
10443;DHT22;5269;51.146;16.986;2022-09-16T17:43:42;12.60;99.90
10443;DHT22;5269;51.146;16.986;2022-09-16T17:46:12;12.50;99.90
10443;DHT22;5269;51.146;16.986;2022-09-16T17:48:40;12.60;99.90
10443;DHT22;5269;51.146;16.986;2022-09-16T17:51:07;12.50;99.90
10443;DHT22;5269;51.146;16.986;2022-09-16T17:53:38;12.60;99.90
10443;DHT22;5269;51.146;16.986;2022-09-16T17:56:08;12.60;99.90
10443;DHT22;5269;51.146;16.986;2022-09-16T17:58:46;12.60;99.90
10443;DHT22;5269;51.146;16.986;2022-09-16T18:04:35;12.40;99.90
10443;DHT22;5269;51.146;16.986;2022-09-16T18:07:05;12.40;99.90
10443;DHT22;5269;51.146;16.986;2022-09-16T18:09:32;12.40;99.90
10443;DHT22;5269;51.146;16.986;2022-09-16T18:12:05;12.40;99.90
10443;DHT22;5269;51.146;16.986;2022-09-16T18:14:32;12.40;99.90
10443;DHT22;5269;51.146;16.986;2022-09-16T18:17:02;12.30;99.90
10443;DHT22;5269;51.146;16.986;2022-09-16T18:19:29;12.30;99.90
10443;DHT22;5269;51.146;16.986;2022-09-16T18:21:56;12.30;99.90
10443;DHT22;5269;51.146;16.986;2022-09-16T18:24:28;12.30;99.90
10443;DHT22;5269;51.146;16.986;2022-09-16T18:26:55;12.20;99.90
10443;DHT22;5269;51.146;16.986;2022-09-16T18:29:26;12.20;99.90
10443;DHT22;5269;51.146;16.986;2022-09-16T18:32:03;12.10;99.90
10443;DHT22;5269;51.146;16.986;2022-09-16T18:34:33;12.10;99.90
10443;DHT22;5269;51.146;16.986;2022-09-16T18:37:02;12.00;99.90
10443;DHT22;5269;51.146;16.986;2022-09-16T18:39:29;12.00;99.90
10443;DHT22;5269;51.146;16.986;2022-09-16T18:41:59;12.00;99.90
10443;DHT22;5269;51.146;16.986;2022-09-16T18:44:28;11.90;99.90
10443;DHT22;5269;51.146;16.986;2022-09-16T18:46:55;11.80;99.90
10443;DHT22;5269;51.146;16.986;2022-09-16T18:49:22;11.80;99.90
10443;DHT22;5269;51.146;16.986;2022-09-16T18:51:52;11.80;99.90
10443;DHT22;5269;51.146;16.986;2022-09-16T18:54:24;11.90;99.90
10443;DHT22;5269;51.146;16.986;2022-09-16T18:56:53;12.00;99.90
10443;DHT22;5269;51.146;16.986;2022-09-16T18:59:22;12.00;99.90
10443;DHT22;5269;51.146;16.986;2022-09-16T19:05:16;12.10;99.90
10443;DHT22;5269;51.146;16.986;2022-09-16T19:07:44;11.90;99.90
10443;DHT22;5269;51.146;16.986;2022-09-16T19:10:11;11.80;99.90
10443;DHT22;5269;51.146;16.986;2022-09-16T19:12:38;11.80;99.90
10443;DHT22;5269;51.146;16.986;2022-09-16T19:15:06;11.70;99.90
10443;DHT22;5269;51.146;16.986;2022-09-16T19:17:33;11.70;99.90
10443;DHT22;5269;51.146;16.986;2022-09-16T19:20:06;11.70;99.90
10443;DHT22;5269;51.146;16.986;2022-09-16T19:22:37;11.70;99.90
10443;DHT22;5269;51.146;16.986;2022-09-16T19:25:05;11.70;99.90
10443;DHT22;5269;51.146;16.986;2022-09-16T19:27:33;11.70;99.90
10443;DHT22;5269;51.146;16.986;2022-09-16T19:30:00;11.70;99.90
10443;DHT22;5269;51.146;16.986;2022-09-16T19:32:27;11.70;99.90
10443;DHT22;5269;51.146;16.986;2022-09-16T19:34:54;11.70;99.90
10443;DHT22;5269;51.146;16.986;2022-09-16T19:37:21;11.70;99.90
10443;DHT22;5269;51.146;16.986;2022-09-16T19:39:50;11.70;99.90
10443;DHT22;5269;51.146;16.986;2022-09-16T19:42:17;11.80;99.90
10443;DHT22;5269;51.146;16.986;2022-09-16T19:44:46;11.80;99.90
10443;DHT22;5269;51.146;16.986;2022-09-16T19:47:16;11.90;99.90
10443;DHT22;5269;51.146;16.986;2022-09-16T19:49:43;11.90;99.90
10443;DHT22;5269;51.146;16.986;2022-09-16T19:52:12;11.90;99.90
10443;DHT22;5269;51.146;16.986;2022-09-16T19:54:42;11.90;99.90
10443;DHT22;5269;51.146;16.986;2022-09-16T19:57:10;11.90;99.90
10443;DHT22;5269;51.146;16.986;2022-09-16T19:59:40;11.80;99.90
10443;DHT22;5269;51.146;16.986;2022-09-16T20:02:07;11.80;99.90